Time;durP1;ratioP1;P1;durP2;ratioP2;P2;SDS_P1;SDS_P2;PMS_P1;PMS_P2;Temp;Humidity;BMP_temperature;BMP_pressure;BME280_temperature;BME280_humidity;BME280_pressure;Samples;Min_cycle;Max_cycle;Signal;HPM_P1;HPM_P2
2021/10/17 00:02:15;;;;;;;4.53;4.32;;;12.50;68.30;;;;;;4976885;28;20391;-82
2021/10/17 00:04:41;;;;;;;4.88;4.63;;;12.50;68.30;;;;;;4992901;28;20297;-82
2021/10/17 00:07:10;;;;;;;4.40;4.20;;;12.40;68.40;;;;;;4993192;28;20039;-83
2021/10/17 00:09:38;;;;;;;4.82;4.43;;;12.40;68.50;;;;;;4996106;28;20064;-82
2021/10/17 00:12:06;;;;;;;4.60;4.40;;;12.40;69.40;;;;;;5001685;28;20364;-82
2021/10/17 00:14:33;;;;;;;4.15;3.95;;;12.30;68.70;;;;;;4998806;28;20495;-82
2021/10/17 00:16:59;;;;;;;4.68;4.38;;;12.20;68.80;;;;;;4995711;28;20038;-83
2021/10/17 00:19:25;;;;;;;6.10;4.43;;;12.20;68.90;;;;;;5022027;28;20039;-82
2021/10/17 00:21:51;;;;;;;5.22;4.82;;;12.20;69.00;;;;;;5012006;28;20464;-83
2021/10/17 00:24:17;;;;;;;4.90;4.63;;;12.10;68.90;;;;;;4994074;28;20042;-83
2021/10/17 00:26:43;;;;;;;4.68;4.40;;;12.10;68.90;;;;;;4996056;28;20037;-83
2021/10/17 00:29:09;;;;;;;4.35;4.15;;;12.00;69.00;;;;;;5000601;28;20721;-83
2021/10/17 00:31:36;;;;;;;4.80;4.60;;;12.10;69.00;;;;;;5008386;28;20148;-82
2021/10/17 00:34:02;;;;;;;4.30;4.10;;;12.10;69.00;;;;;;4998125;28;20034;-83
2021/10/17 00:36:28;;;;;;;4.28;4.07;;;12.10;69.00;;;;;;5029854;28;20034;-82
2021/10/17 00:38:54;;;;;;;4.30;4.10;;;12.10;69.10;;;;;;4996583;28;20058;-82
2021/10/17 00:41:21;;;;;;;4.78;4.47;;;12.10;69.10;;;;;;4981289;28;20744;-82
2021/10/17 00:43:47;;;;;;;4.65;4.40;;;12.10;69.10;;;;;;4993482;28;20038;-83
2021/10/17 00:46:20;;;;;;;3.85;3.65;;;12.00;69.00;;;;;;4994667;28;20518;-82
2021/10/17 00:48:47;;;;;;;4.63;4.32;;;12.00;69.00;;;;;;5031911;28;20034;-82
2021/10/17 00:51:13;;;;;;;3.92;3.72;;;12.00;69.10;;;;;;4987042;28;20208;-82
2021/10/17 00:53:39;;;;;;;3.88;3.67;;;12.00;69.10;;;;;;5004186;28;20030;-83
2021/10/17 00:56:05;;;;;;;4.30;4.10;;;12.00;69.20;;;;;;4989166;28;20484;-82
2021/10/17 00:58:32;;;;;;;4.32;4.13;;;12.00;69.20;;;;;;5008801;28;20027;-82
2021/10/17 01:00:58;;;;;;;11.15;4.65;;;12.00;69.30;;;;;;4997962;28;20102;-82
2021/10/17 01:03:25;;;;;;;4.45;4.15;;;12.00;69.30;;;;;;4998463;28;20388;-83
2021/10/17 01:05:52;;;;;;;4.35;4.15;;;12.00;69.40;;;;;;4996872;28;20030;-82
2021/10/17 01:08:18;;;;;;;4.32;4.13;;;11.90;69.30;;;;;;4992058;28;20033;-83
2021/10/17 01:10:44;;;;;;;4.15;3.80;;;11.90;69.40;;;;;;5007426;28;20037;-83
2021/10/17 01:13:17;;;;;;;5.00;4.03;;;11.90;69.40;;;;;;4995908;28;20045;-83
2021/10/17 01:15:45;;;;;;;4.28;3.97;;;11.90;69.50;;;;;;5029464;28;20038;-83
2021/10/17 01:18:11;;;;;;;4.35;4.05;;;11.90;69.50;;;;;;4997719;28;20034;-82
2021/10/17 01:20:37;;;;;;;4.03;3.83;;;11.90;69.50;;;;;;4994898;28;20034;-83
2021/10/17 01:23:03;;;;;;;3.80;3.60;;;11.90;69.50;;;;;;4988234;28;20054;-83
2021/10/17 01:25:29;;;;;;;4.57;4.28;;;11.90;69.50;;;;;;5008348;28;20041;-82
2021/10/17 01:27:55;;;;;;;5.65;5.22;;;11.90;69.50;;;;;;4997959;28;20475;-83
2021/10/17 01:30:21;;;;;;;3.97;3.78;;;11.90;69.50;;;;;;5000889;28;20037;-83
2021/10/17 01:32:47;;;;;;;5.10;4.68;;;11.90;69.60;;;;;;5002619;28;20391;-82
2021/10/17 01:35:13;;;;;;;3.85;3.65;;;11.90;69.60;;;;;;4990174;28;20043;-83
2021/10/17 01:37:40;;;;;;;3.85;3.65;;;11.90;69.70;;;;;;4994945;28;20392;-83
2021/10/17 01:40:06;;;;;;;4.20;4.00;;;11.90;69.70;;;;;;4996016;28;20030;-83
2021/10/17 01:42:32;;;;;;;4.07;3.88;;;11.90;69.70;;;;;;4998454;28;20038;-82
2021/10/17 01:44:58;;;;;;;4.53;4.25;;;11.90;69.80;;;;;;4991045;28;20353;-82
2021/10/17 01:47:25;;;;;;;4.20;3.90;;;11.90;69.80;;;;;;4983977;28;20035;-82
2021/10/17 01:49:51;;;;;;;4.57;4.25;;;11.80;69.80;;;;;;4975921;28;20050;-82
2021/10/17 01:52:17;;;;;;;4.15;3.95;;;11.80;69.80;;;;;;4978926;28;20027;-82
2021/10/17 01:54:43;;;;;;;4.03;3.83;;;11.80;69.90;;;;;;4985289;28;20047;-82
2021/10/17 01:57:10;;;;;;;4.38;4.07;;;11.80;69.90;;;;;;4981656;28;20046;-82
2021/10/17 01:59:36;;;;;;;3.78;3.58;;;11.80;70.00;;;;;;4973729;28;20045;-82
2021/10/17 02:02:02;;;;;;;4.18;3.97;;;11.80;70.00;;;;;;4987511;28;20483;-82
2021/10/17 02:04:28;;;;;;;4.65;4.45;;;11.70;69.90;;;;;;4971441;28;20053;-83
2021/10/17 02:06:54;;;;;;;4.10;3.90;;;11.70;69.90;;;;;;4971017;28;20043;-83
2021/10/17 02:09:20;;;;;;;3.97;3.67;;;11.70;70.00;;;;;;5023046;28;20052;-82
2021/10/17 02:11:46;;;;;;;4.07;3.88;;;11.70;70.00;;;;;;4974841;28;20069;-82
2021/10/17 02:14:12;;;;;;;5.00;4.38;;;11.60;70.00;;;;;;4991521;28;20034;-82
2021/10/17 02:16:38;;;;;;;3.83;3.63;;;11.60;70.10;;;;;;4998772;28;20399;-82
2021/10/17 02:19:05;;;;;;;3.72;3.53;;;11.60;70.10;;;;;;4990960;28;20049;-82
2021/10/17 02:21:31;;;;;;;4.30;4.10;;;11.60;70.20;;;;;;4999269;28;20047;-81
2021/10/17 02:23:57;;;;;;;4.15;3.95;;;11.60;70.20;;;;;;4998356;28;20049;-82
2021/10/17 02:26:23;;;;;;;4.15;3.95;;;11.50;70.30;;;;;;4999496;28;20045;-82
2021/10/17 02:28:49;;;;;;;4.28;4.07;;;11.40;70.30;;;;;;4997796;28;20057;-82
2021/10/17 02:31:15;;;;;;;4.13;3.92;;;11.40;70.40;;;;;;4998687;28;20045;-82
2021/10/17 02:33:41;;;;;;;4.63;4.22;;;11.30;70.40;;;;;;4999972;28;20038;-82
2021/10/17 02:36:07;;;;;;;4.32;4.03;;;11.30;70.50;;;;;;4992113;28;20050;-82
2021/10/17 02:38:33;;;;;;;3.80;3.60;;;11.30;70.60;;;;;;4999801;28;20049;-82
2021/10/17 02:40:59;;;;;;;4.18;3.97;;;11.20;70.50;;;;;;5007413;28;20037;-82
2021/10/17 02:43:26;;;;;;;4.57;4.28;;;11.20;70.60;;;;;;4999223;28;20480;-82
2021/10/17 02:45:52;;;;;;;3.90;3.70;;;11.30;70.70;;;;;;4997088;28;20050;-82
2021/10/17 02:48:18;;;;;;;3.80;3.60;;;11.20;70.60;;;;;;4991248;28;20049;-82
2021/10/17 02:50:44;;;;;;;4.70;4.40;;;11.20;70.50;;;;;;4995519;28;20407;-82
2021/10/17 02:53:10;;;;;;;4.10;3.90;;;11.30;70.60;;;;;;4995189;28;20034;-82
2021/10/17 02:55:36;;;;;;;3.90;3.70;;;11.30;70.60;;;;;;4993224;28;20053;-82
2021/10/17 02:58:02;;;;;;;3.75;3.55;;;11.20;70.60;;;;;;4994822;28;20034;-82
2021/10/17 03:00:28;;;;;;;3.30;3.17;;;11.20;70.60;;;;;;5010658;28;20034;-83
2021/10/17 03:02:54;;;;;;;3.97;3.78;;;11.20;70.70;;;;;;4995646;28;20038;-82
2021/10/17 03:05:20;;;;;;;4.20;3.92;;;11.20;70.70;;;;;;4975465;28;20407;-82
2021/10/17 03:07:46;;;;;;;4.05;3.75;;;11.20;70.70;;;;;;4991098;28;20030;-82
2021/10/17 03:10:12;;;;;;;4.43;4.20;;;11.20;70.70;;;;;;4992212;28;20046;-82
2021/10/17 03:12:39;;;;;;;4.53;4.20;;;11.10;70.70;;;;;;4995912;28;20030;-82
2021/10/17 03:15:06;;;;;;;3.90;3.70;;;11.10;70.80;;;;;;4993089;28;20045;-82
2021/10/17 03:17:33;;;;;;;3.65;3.45;;;11.10;70.90;;;;;;4977826;28;20038;-82
2021/10/17 03:19:59;;;;;;;4.35;4.05;;;11.10;70.90;;;;;;4994318;28;20033;-82
2021/10/17 03:22:25;;;;;;;4.20;4.00;;;11.10;71.00;;;;;;4990088;28;20491;-82
2021/10/17 03:24:51;;;;;;;3.70;3.50;;;11.10;71.00;;;;;;4997106;28;20027;-82
2021/10/17 03:27:17;;;;;;;3.85;3.65;;;11.00;71.00;;;;;;4993832;28;20022;-82
2021/10/17 03:29:43;;;;;;;5.97;3.63;;;11.00;70.90;;;;;;4995223;28;20053;-83
2021/10/17 03:32:10;;;;;;;3.67;3.47;;;11.00;71.00;;;;;;4992756;28;20033;-82
2021/10/17 03:34:36;;;;;;;4.22;3.83;;;11.00;71.00;;;;;;4989580;28;20049;-83
2021/10/17 03:37:02;;;;;;;4.20;3.92;;;11.00;71.10;;;;;;4995075;28;20045;-83
2021/10/17 03:39:28;;;;;;;4.03;3.83;;;11.00;71.10;;;;;;4995465;28;20038;-82
2021/10/17 03:41:55;;;;;;;4.15;3.95;;;11.00;71.10;;;;;;4996017;28;20400;-83
2021/10/17 03:44:21;;;;;;;3.75;3.55;;;11.00;71.10;;;;;;4974892;28;20490;-83
2021/10/17 03:46:47;;;;;;;3.83;3.63;;;11.00;71.10;;;;;;4990607;28;20053;-83
2021/10/17 03:49:13;;;;;;;4.45;4.15;;;11.00;71.20;;;;;;4991315;28;20058;-82
2021/10/17 03:51:40;;;;;;;4.00;3.80;;;10.90;71.10;;;;;;5027064;28;20038;-80
2021/10/17 03:54:06;;;;;;;3.80;3.60;;;10.90;71.20;;;;;;4993281;28;20491;-80
2021/10/17 03:56:32;;;;;;;5.15;3.92;;;10.90;71.30;;;;;;4988911;28;20034;-82
2021/10/17 03:58:58;;;;;;;5.10;4.78;;;10.80;71.30;;;;;;4992058;28;20613;-88
2021/10/17 04:01:24;;;;;;;3.92;3.72;;;10.80;71.30;;;;;;4967832;28;20031;-82
2021/10/17 04:03:50;;;;;;;4.22;4.03;;;10.80;71.30;;;;;;4972262;28;20043;-82
2021/10/17 04:06:16;;;;;;;3.75;3.55;;;10.80;71.30;;;;;;4971053;28;20483;-82
2021/10/17 04:08:44;;;;;;;3.70;3.50;;;10.90;71.40;;;;;;4967868;28;20043;-82
2021/10/17 04:11:10;;;;;;;4.32;4.03;;;10.90;71.40;;;;;;4964986;28;20494;-82
2021/10/17 04:13:36;;;;;;;4.43;4.13;;;10.80;71.30;;;;;;4972614;28;20397;-82
2021/10/17 04:16:02;;;;;;;4.18;3.88;;;10.80;71.40;;;;;;4987964;28;20031;-82
2021/10/17 04:18:28;;;;;;;3.83;3.63;;;10.80;71.40;;;;;;4997535;28;20042;-83
2021/10/17 04:20:57;;;;;;;3.70;3.50;;;10.80;71.40;;;;;;4994232;28;20404;-82
2021/10/17 04:23:23;;;;;;;4.50;4.20;;;10.80;71.40;;;;;;4993003;28;20512;-82
2021/10/17 04:25:50;;;;;;;3.95;3.75;;;10.80;71.40;;;;;;4994287;28;20041;-82
2021/10/17 04:28:16;;;;;;;4.10;3.90;;;10.80;71.40;;;;;;4980990;28;20065;-82
2021/10/17 04:30:42;;;;;;;4.53;4.22;;;10.80;71.40;;;;;;4999976;28;20054;-82
2021/10/17 04:33:08;;;;;;;4.50;4.30;;;10.80;71.40;;;;;;4995087;28;20030;-82
2021/10/17 04:35:37;;;;;;;3.95;3.75;;;10.80;71.40;;;;;;4993291;28;20042;-82
2021/10/17 04:38:05;;;;;;;4.55;4.25;;;10.80;71.50;;;;;;4991929;28;20027;-82
2021/10/17 04:40:31;;;;;;;4.88;4.40;;;10.70;71.50;;;;;;4994495;28;20065;-82
2021/10/17 04:42:58;;;;;;;3.83;3.63;;;10.70;71.60;;;;;;4996396;28;20038;-82
2021/10/17 04:45:24;;;;;;;4.53;4.22;;;10.80;71.60;;;;;;4998457;28;20033;-82
2021/10/17 04:47:50;;;;;;;3.88;3.67;;;10.70;71.50;;;;;;4986707;28;20049;-82
2021/10/17 04:50:16;;;;;;;4.72;4.38;;;10.70;71.60;;;;;;4991904;28;20398;-82
2021/10/17 04:52:42;;;;;;;4.10;3.90;;;10.70;71.50;;;;;;5003044;28;20030;-82
2021/10/17 04:55:09;;;;;;;4.15;3.95;;;10.70;71.60;;;;;;5005945;28;20412;-82
2021/10/17 04:57:35;;;;;;;4.05;3.85;;;10.70;71.60;;;;;;4993445;28;20038;-82
2021/10/17 05:00:03;;;;;;;5.00;3.83;;;10.70;71.60;;;;;;4998005;28;20049;-82
2021/10/17 05:02:29;;;;;;;4.00;3.80;;;10.70;71.60;;;;;;4997851;28;20700;-82
2021/10/17 05:04:55;;;;;;;3.95;3.75;;;10.70;71.60;;;;;;5004798;28;20030;-82
2021/10/17 05:07:21;;;;;;;4.15;3.85;;;10.60;71.60;;;;;;4998495;28;20037;-82
2021/10/17 05:09:47;;;;;;;8.07;3.97;;;10.70;71.60;;;;;;5000657;28;20042;-82
2021/10/17 05:12:13;;;;;;;3.80;3.60;;;10.60;71.60;;;;;;4975656;28;20030;-82
2021/10/17 05:14:39;;;;;;;4.15;3.95;;;10.60;71.60;;;;;;5002637;28;20038;-82
2021/10/17 05:17:05;;;;;;;3.78;3.58;;;10.60;71.60;;;;;;4997472;28;20145;-82
2021/10/17 05:19:32;;;;;;;3.90;3.70;;;10.60;71.60;;;;;;4999804;28;20037;-81
2021/10/17 05:21:58;;;;;;;4.95;4.53;;;10.60;71.70;;;;;;4996319;28;20491;-82
2021/10/17 05:24:24;;;;;;;4.25;3.95;;;10.50;71.60;;;;;;4990132;28;20042;-82
2021/10/17 05:26:50;;;;;;;3.92;3.72;;;10.50;71.70;;;;;;4999888;28;20498;-82
2021/10/17 05:29:16;;;;;;;4.22;4.03;;;10.40;71.70;;;;;;4998110;28;20038;-82
2021/10/17 05:31:42;;;;;;;4.38;4.07;;;10.40;71.80;;;;;;4999694;28;20034;-82
2021/10/17 05:34:08;;;;;;;3.95;3.75;;;10.30;71.90;;;;;;5001321;28;20034;-82
2021/10/17 05:36:35;;;;;;;3.70;3.50;;;10.40;72.00;;;;;;5004325;28;20061;-82
2021/10/17 05:39:01;;;;;;;3.80;3.60;;;10.30;71.90;;;;;;4995505;28;20022;-84
2021/10/17 05:41:27;;;;;;;4.10;3.90;;;10.30;71.90;;;;;;4999795;28;20030;-83
2021/10/17 05:43:53;;;;;;;4.82;4.43;;;10.30;71.90;;;;;;4982237;28;20057;-84
2021/10/17 05:46:19;;;;;;;3.92;3.72;;;10.30;72.00;;;;;;5000828;28;20042;-83
2021/10/17 05:48:46;;;;;;;3.72;3.53;;;10.30;72.00;;;;;;5006461;28;20383;-83
2021/10/17 05:51:12;;;;;;;3.95;3.75;;;10.20;71.90;;;;;;4996372;28;20049;-83
2021/10/17 05:53:38;;;;;;;4.20;4.00;;;10.20;72.00;;;;;;5002770;28;20177;-83
2021/10/17 05:56:04;;;;;;;4.53;4.32;;;10.20;72.10;;;;;;4996414;28;20034;-88
2021/10/17 05:58:30;;;;;;;3.92;3.72;;;10.20;72.20;;;;;;4991958;28;20046;-82
2021/10/17 06:00:56;;;;;;;3.70;3.50;;;10.20;72.20;;;;;;4991555;28;20502;-83
2021/10/17 06:03:23;;;;;;;4.05;3.83;;;10.20;72.10;;;;;;4997404;28;20427;-87
2021/10/17 06:05:49;;;;;;;4.63;4.22;;;10.20;72.20;;;;;;4996546;28;20026;-87
2021/10/17 06:08:15;;;;;;;3.92;3.72;;;10.20;72.20;;;;;;4991805;28;20035;-87
2021/10/17 06:10:42;;;;;;;4.03;3.83;;;10.20;72.20;;;;;;4992624;28;20061;-87
2021/10/17 06:13:08;;;;;;;3.90;3.70;;;10.20;72.10;;;;;;4996434;28;20383;-86
2021/10/17 06:15:34;;;;;;;4.25;4.05;;;10.20;72.10;;;;;;4995540;28;20034;-86
2021/10/17 06:18:00;;;;;;;4.05;3.85;;;10.10;72.00;;;;;;4994764;28;20039;-87
2021/10/17 06:20:26;;;;;;;3.83;3.63;;;10.10;72.20;;;;;;4996962;28;20037;-89
2021/10/17 06:22:53;;;;;;;3.70;3.50;;;10.10;72.30;;;;;;4995361;28;20026;-89
2021/10/17 06:25:19;;;;;;;4.47;4.18;;;10.10;72.30;;;;;;4997191;28;20049;-92
2021/10/17 06:27:45;;;;;;;4.28;3.88;;;10.00;72.20;;;;;;4996280;28;20026;-92
2021/10/17 06:30:12;;;;;;;4.00;3.80;;;10.00;72.30;;;;;;4997018;28;20049;-89
2021/10/17 06:32:38;;;;;;;4.45;4.25;;;9.90;72.40;;;;;;5007155;28;20486;-90
2021/10/17 06:35:04;;;;;;;4.72;4.40;;;10.00;72.50;;;;;;5001490;28;20045;-91
2021/10/17 06:37:30;;;;;;;4.13;3.92;;;9.90;72.50;;;;;;5007285;28;20471;-88
2021/10/17 06:39:56;;;;;;;3.70;3.50;;;10.00;72.40;;;;;;5005572;28;20058;-89
2021/10/17 06:42:23;;;;;;;5.15;4.10;;;10.00;72.30;;;;;;5002198;28;20459;-90
2021/10/17 06:44:49;;;;;;;4.47;4.13;;;10.00;72.30;;;;;;4993997;28;20030;-91
2021/10/17 06:47:15;;;;;;;4.25;3.90;;;10.00;72.20;;;;;;4995307;28;20039;-88
2021/10/17 06:49:41;;;;;;;4.35;4.15;;;10.00;72.20;;;;;;4991246;28;20053;-90
2021/10/17 06:52:07;;;;;;;3.95;3.75;;;10.00;72.10;;;;;;4993842;28;20026;-90
2021/10/17 06:54:33;;;;;;;4.25;4.05;;;10.00;72.10;;;;;;4994530;28;20098;-89
2021/10/17 06:56:59;;;;;;;3.90;3.70;;;10.00;72.10;;;;;;5004106;28;20046;-90
2021/10/17 06:59:26;;;;;;;4.68;4.43;;;10.00;72.10;;;;;;5021095;28;20399;-91
2021/10/17 07:01:52;;;;;;;4.13;3.92;;;10.00;72.00;;;;;;4990916;28;20045;-92
2021/10/17 07:04:18;;;;;;;4.30;4.10;;;10.00;72.00;;;;;;5025515;28;20387;-90
2021/10/17 07:06:44;;;;;;;4.70;4.40;;;10.00;72.10;;;;;;4988896;28;20026;-92
2021/10/17 07:09:11;;;;;;;4.13;3.92;;;10.00;72.10;;;;;;4988789;28;20037;-92
2021/10/17 07:11:37;;;;;;;4.20;4.00;;;10.00;72.20;;;;;;5020331;28;20043;-90
2021/10/17 07:14:04;;;;;;;4.00;3.80;;;10.00;72.20;;;;;;5020737;28;20035;-91
2021/10/17 07:16:30;;;;;;;3.75;3.55;;;10.00;72.20;;;;;;4978210;28;20069;-92
2021/10/17 07:18:56;;;;;;;3.90;3.70;;;10.00;72.20;;;;;;5015811;28;20030;-92
2021/10/17 07:21:22;;;;;;;4.03;3.83;;;10.00;72.20;;;;;;4991169;28;20043;-90
2021/10/17 07:23:48;;;;;;;4.18;3.97;;;10.00;72.20;;;;;;5003657;28;20392;-91
2021/10/17 07:26:14;;;;;;;4.53;4.25;;;10.00;72.10;;;;;;5003548;28;20046;-88
2021/10/17 07:28:40;;;;;;;4.13;3.92;;;10.10;71.90;;;;;;4988959;28;20499;-88
2021/10/17 07:31:06;;;;;;;4.35;4.15;;;10.20;71.60;;;;;;4975085;28;20058;-85
2021/10/17 07:33:33;;;;;;;4.93;4.63;;;10.30;71.50;;;;;;4979565;28;20488;-87
2021/10/17 07:35:59;;;;;;;4.10;3.90;;;10.50;71.20;;;;;;5003085;28;20046;-90
2021/10/17 07:38:25;;;;;;;4.20;4.00;;;10.70;70.80;;;;;;5003022;28;20089;-86
2021/10/17 07:40:51;;;;;;;4.13;3.92;;;10.70;70.50;;;;;;5020859;28;20510;-84
2021/10/17 07:43:17;;;;;;;4.20;4.00;;;10.80;70.40;;;;;;4991161;28;20030;-88
2021/10/17 07:45:43;;;;;;;4.55;4.35;;;10.90;70.30;;;;;;4988827;28;20506;-92
2021/10/17 07:48:10;;;;;;;4.00;3.80;;;10.80;70.30;;;;;;4998744;28;20030;-91
2021/10/17 07:50:36;;;;;;;4.50;4.20;;;10.80;70.70;;;;;;4988753;28;20069;-87
2021/10/17 07:53:02;;;;;;;4.40;4.10;;;10.60;71.00;;;;;;4990588;28;20053;-92
2021/10/17 07:55:29;;;;;;;4.22;4.03;;;10.50;71.30;;;;;;5008025;28;20479;-90
2021/10/17 07:57:55;;;;;;;4.00;3.80;;;10.50;71.50;;;;;;4978389;28;20038;-88
2021/10/17 08:00:23;;;;;;;4.00;3.80;;;10.50;71.70;;;;;;4990371;28;20487;-90
2021/10/17 08:02:49;;;;;;;4.70;4.40;;;10.50;71.90;;;;;;5018731;28;20041;-90
2021/10/17 08:05:15;;;;;;;4.75;4.55;;;10.60;71.80;;;;;;4990174;28;20034;-88
2021/10/17 08:07:41;;;;;;;6.03;5.72;;;10.90;71.50;;;;;;4990410;28;20393;-87
2021/10/17 08:10:08;;;;;;;5.18;4.97;;;11.20;70.90;;;;;;5000856;28;20034;-88
2021/10/17 08:12:34;;;;;;;5.13;4.85;;;11.50;70.20;;;;;;5002737;28;20027;-87
2021/10/17 08:15:00;;;;;;;5.75;5.45;;;11.70;69.60;;;;;;4983447;28;20053;-89
2021/10/17 08:17:26;;;;;;;5.40;5.10;;;11.80;69.40;;;;;;4986851;28;20030;-87
2021/10/17 08:19:53;;;;;;;5.15;4.95;;;11.90;69.40;;;;;;5019631;28;20041;-89
2021/10/17 08:22:19;;;;;;;4.90;4.68;;;12.00;69.40;;;;;;5004638;28;20033;-90
2021/10/17 08:24:46;;;;;;;4.38;4.18;;;12.30;69.10;;;;;;4997190;28;20034;-91
2021/10/17 08:27:12;;;;;;;4.70;4.50;;;12.50;68.80;;;;;;4981873;28;20071;-91
2021/10/17 08:29:38;;;;;;;4.50;4.30;;;12.60;68.70;;;;;;4980780;28;20051;-86
2021/10/17 08:32:04;;;;;;;5.03;4.60;;;12.70;68.70;;;;;;4989882;28;20034;-88
2021/10/17 08:34:30;;;;;;;4.47;4.28;;;12.80;68.80;;;;;;5022891;28;20042;-93
2021/10/17 08:36:56;;;;;;;4.63;4.43;;;12.80;69.00;;;;;;4986882;28;20031;-89
2021/10/17 08:39:22;;;;;;;15.00;5.15;;;12.80;69.20;;;;;;5018803;28;20034;-90
2021/10/17 08:41:48;;;;;;;4.95;4.43;;;12.90;69.40;;;;;;4989896;28;20050;-89
2021/10/17 08:44:15;;;;;;;4.70;4.50;;;12.90;69.40;;;;;;4987134;28;20518;-89
2021/10/17 08:46:42;;;;;;;5.43;5.03;;;12.90;69.50;;;;;;5000274;28;20460;-87
2021/10/17 08:49:08;;;;;;;4.95;4.65;;;13.00;69.60;;;;;;5026685;28;20037;-88
2021/10/17 08:51:35;;;;;;;4.57;4.28;;;13.00;69.60;;;;;;5023702;28;20399;-90
2021/10/17 08:54:01;;;;;;;5.03;4.72;;;13.10;69.60;;;;;;4990937;28;20037;-88
2021/10/17 08:56:27;;;;;;;4.78;4.47;;;13.10;69.50;;;;;;5022393;28;20043;-87
2021/10/17 08:58:53;;;;;;;4.35;4.15;;;13.10;69.60;;;;;;5000731;28;20031;-87
2021/10/17 09:01:20;;;;;;;5.70;5.00;;;13.00;69.80;;;;;;5024700;28;20047;-86
2021/10/17 09:03:58;;;;;;;4.43;4.22;;;13.00;69.90;;;;;;4994491;28;20033;-86
2021/10/17 09:06:27;;;;;;;5.03;4.72;;;13.00;70.00;;;;;;4990168;28;20038;-88
2021/10/17 09:09:23;;;;;;;4.47;4.28;;;13.00;70.00;;;;;;5004578;28;20041;-89
2021/10/17 09:11:51;;;;;;;5.18;4.88;;;13.00;70.00;;;;;;5001117;28;20410;-87
2021/10/17 09:14:22;;;;;;;4.38;4.18;;;13.10;70.00;;;;;;5000929;28;20025;-89
2021/10/17 09:16:50;;;;;;;5.05;4.75;;;13.10;70.00;;;;;;4988199;28;20030;-89
2021/10/17 09:19:32;;;;;;;4.45;4.25;;;13.20;70.30;;;;;;4978069;28;20026;-88
2021/10/17 09:21:58;;;;;;;4.43;4.22;;;13.20;69.90;;;;;;4991977;28;20047;-87
2021/10/17 09:24:37;;;;;;;4.88;4.57;;;13.30;69.90;;;;;;5014876;28;20487;-86
2021/10/17 09:27:21;;;;;;;5.10;4.78;;;13.30;70.00;;;;;;5004672;28;20035;-86
2021/10/17 09:29:54;;;;;;;5.40;4.57;;;13.40;69.90;;;;;;4989743;28;20034;-87
2021/10/17 09:32:23;;;;;;;5.15;4.88;;;13.60;69.80;;;;;;5013311;28;20050;-86
2021/10/17 09:34:59;;;;;;;4.80;4.57;;;13.70;69.70;;;;;;4988619;28;20046;-87
2021/10/17 09:37:38;;;;;;;4.95;4.65;;;13.80;69.60;;;;;;5025404;28;20038;-92
2021/10/17 09:40:11;;;;;;;4.78;4.50;;;13.90;69.50;;;;;;4974854;28;20050;-88
2021/10/17 09:42:42;;;;;;;4.75;4.55;;;14.10;69.20;;;;;;4992547;28;20026;-88
2021/10/17 09:45:23;;;;;;;5.15;4.85;;;14.10;69.00;;;;;;4986296;28;20078;-90
2021/10/17 09:47:49;;;;;;;5.30;4.90;;;14.20;69.00;;;;;;4995209;28;20475;-88
2021/10/17 09:50:16;;;;;;;5.05;4.65;;;14.20;69.00;;;;;;4988385;28;20046;-86
2021/10/17 09:53:04;;;;;;;5.15;4.85;;;14.30;69.00;;;;;;4994048;28;20022;-83
2021/10/17 09:55:31;;;;;;;4.43;4.22;;;14.40;68.90;;;;;;4991059;28;20054;-86
2021/10/17 09:57:58;;;;;;;4.90;4.70;;;14.60;68.80;;;;;;4999662;28;20065;-87
2021/10/17 10:00:24;;;;;;;4.88;4.65;;;14.70;68.60;;;;;;4994144;28;20041;-87
2021/10/17 10:02:52;;;;;;;5.22;4.97;;;14.80;68.40;;;;;;5001631;28;20060;-89
2021/10/17 10:05:24;;;;;;;5.00;4.80;;;14.90;68.30;;;;;;5005944;28;20037;-90
2021/10/17 10:07:51;;;;;;;4.70;4.40;;;15.10;68.30;;;;;;5002439;28;20511;-92
2021/10/17 10:10:18;;;;;;;4.93;4.65;;;15.20;68.10;;;;;;5006416;28;20056;-90
2021/10/17 10:12:44;;;;;;;5.10;4.80;;;15.30;67.90;;;;;;4998180;28;20026;-86
2021/10/17 10:15:11;;;;;;;5.03;4.72;;;15.40;67.90;;;;;;5002837;28;20456;-91
2021/10/17 10:17:41;;;;;;;4.82;4.63;;;15.40;67.70;;;;;;4996728;28;20486;-87
2021/10/17 10:20:08;;;;;;;5.20;4.90;;;15.50;67.80;;;;;;4991585;28;20053;-88
2021/10/17 10:22:34;;;;;;;5.15;4.82;;;15.50;68.50;;;;;;4992327;28;20473;-85
2021/10/17 10:25:00;;;;;;;4.95;4.68;;;15.50;67.70;;;;;;5000776;28;20022;-90
2021/10/17 10:27:26;;;;;;;4.70;4.50;;;15.60;67.70;;;;;;5003869;28;20033;-91
2021/10/17 10:30:19;;;;;;;4.60;4.40;;;15.70;67.60;;;;;;4980760;28;20145;-88
2021/10/17 10:33:05;;;;;;;4.90;4.60;;;15.80;67.50;;;;;;4979019;28;20038;-89
2021/10/17 10:35:31;;;;;;;5.10;4.72;;;15.90;67.30;;;;;;4991108;28;20046;-88
2021/10/17 10:37:57;;;;;;;5.22;4.93;;;16.10;67.30;;;;;;4992024;28;20038;-87
2021/10/17 10:40:23;;;;;;;4.70;4.43;;;16.20;67.20;;;;;;4992642;28;21087;-86
2021/10/17 10:42:50;;;;;;;4.57;4.30;;;16.20;67.10;;;;;;4996252;28;20029;-87
2021/10/17 10:45:29;;;;;;;5.32;4.82;;;16.30;66.90;;;;;;4981554;28;20043;-87
2021/10/17 10:48:10;;;;;;;5.03;4.72;;;16.40;66.90;;;;;;5015762;28;20506;-86
2021/10/17 10:50:37;;;;;;;;;;;16.50;66.70;;;;;;4986980;28;20049;-89
2021/10/17 10:53:03;;;;;;;4.45;4.25;;;16.50;66.60;;;;;;4997192;28;19910;-88
2021/10/17 10:55:48;;;;;;;6.45;4.75;;;16.60;66.60;;;;;;5024183;28;20030;-88
2021/10/17 10:58:35;;;;;;;5.05;4.68;;;16.60;66.50;;;;;;4999862;28;20041;-89
2021/10/17 11:01:02;;;;;;;4.47;4.28;;;16.70;66.50;;;;;;4988133;28;20042;-89
2021/10/17 11:03:30;;;;;;;4.78;4.57;;;16.70;66.50;;;;;;4996316;28;20448;-88
2021/10/17 11:06:05;;;;;;;4.75;4.53;;;16.80;66.40;;;;;;4998321;28;20046;-84
2021/10/17 11:08:31;;;;;;;4.72;4.53;;;16.80;66.30;;;;;;4998663;28;20534;-84
2021/10/17 11:10:58;;;;;;;5.13;4.88;;;16.90;66.20;;;;;;4991585;28;20480;-85
2021/10/17 11:13:37;;;;;;;4.82;4.63;;;17.10;66.10;;;;;;4990488;28;20026;-78
2021/10/17 11:16:04;;;;;;;5.35;5.07;;;17.20;65.90;;;;;;4988270;28;20045;-79
2021/10/17 11:18:40;;;;;;;6.72;6.25;;;17.30;65.60;;;;;;4988398;28;20470;-79
2021/10/17 11:21:07;;;;;;;4.97;4.78;;;17.40;65.50;;;;;;5015471;28;20053;-80
2021/10/17 11:23:36;;;;;;;5.28;5.07;;;17.50;65.40;;;;;;4996390;28;20034;-79
2021/10/17 11:26:07;;;;;;;4.85;4.65;;;17.60;65.40;;;;;;4989900;28;20038;-79
2021/10/17 11:28:34;;;;;;;5.97;5.53;;;17.70;65.20;;;;;;4973724;28;20046;-79
2021/10/17 11:31:10;;;;;;;5.78;5.38;;;17.80;65.00;;;;;;4977084;28;20049;-79
2021/10/17 11:33:37;;;;;;;5.93;5.55;;;17.90;64.90;;;;;;4992039;28;20022;-84
2021/10/17 11:36:04;;;;;;;5.75;5.45;;;17.90;64.70;;;;;;4992403;28;20053;-84
2021/10/17 11:38:30;;;;;;;5.90;5.40;;;17.90;64.70;;;;;;4975452;28;20422;-84
2021/10/17 11:41:05;;;;;;;5.53;5.22;;;17.90;64.60;;;;;;4991319;28;20550;-84
2021/10/17 11:43:32;;;;;;;5.82;5.45;;;18.00;64.70;;;;;;5020242;28;20491;-82
2021/10/17 11:46:02;;;;;;;5.38;5.18;;;18.00;64.60;;;;;;4994451;28;20049;-84
2021/10/17 11:48:28;;;;;;;5.47;5.22;;;18.10;64.70;;;;;;4995114;28;20026;-84
2021/10/17 11:50:55;;;;;;;6.57;5.95;;;18.10;64.60;;;;;;4995819;28;20050;-84
2021/10/17 11:53:21;;;;;;;6.05;5.75;;;18.20;64.40;;;;;;4996124;28;20037;-84
2021/10/17 11:55:54;;;;;;;5.70;5.40;;;18.20;64.40;;;;;;4992332;28;20403;-84
2021/10/17 11:58:21;;;;;;;5.63;5.32;;;18.20;64.40;;;;;;5004551;28;20054;-84
2021/10/17 12:00:49;;;;;;;6.20;5.90;;;18.10;64.30;;;;;;5006477;28;20060;-84
2021/10/17 12:03:20;;;;;;;6.13;5.82;;;18.10;64.40;;;;;;4992139;28;20447;-84
2021/10/17 12:05:46;;;;;;;5.97;5.60;;;18.10;64.50;;;;;;4978768;28;20034;-84
2021/10/17 12:08:40;;;;;;;6.03;5.72;;;18.10;64.40;;;;;;4997792;28;20471;-84
2021/10/17 12:11:10;;;;;;;5.72;5.43;;;18.10;64.40;;;;;;4989589;28;20179;-84
2021/10/17 12:13:44;;;;;;;6.15;5.65;;;18.00;64.40;;;;;;4990976;28;20026;-83
2021/10/17 12:16:14;;;;;;;5.70;5.40;;;18.00;64.40;;;;;;4989228;28;20025;-83
2021/10/17 12:18:47;;;;;;;5.80;5.50;;;18.10;64.30;;;;;;5002119;28;20030;-83
2021/10/17 12:21:21;;;;;;;6.20;5.90;;;18.20;64.20;;;;;;4996026;28;20026;-83
2021/10/17 12:23:47;;;;;;;5.60;5.30;;;18.30;63.90;;;;;;4979632;28;20045;-84
2021/10/17 12:26:15;;;;;;;6.60;6.20;;;18.40;63.70;;;;;;5002494;28;20026;-83
2021/10/17 12:28:42;;;;;;;6.45;6.15;;;18.50;63.60;;;;;;4998796;28;20029;-84
2021/10/17 12:31:08;;;;;;;6.47;6.18;;;18.70;63.30;;;;;;5005881;28;20045;-84
2021/10/17 12:33:37;;;;;;;6.28;5.97;;;18.80;63.20;;;;;;4995745;28;20033;-84
2021/10/17 12:36:04;;;;;;;6.55;6.25;;;18.90;62.80;;;;;;5002142;28;20069;-84
2021/10/17 12:38:34;;;;;;;6.93;6.53;;;19.00;62.60;;;;;;4993212;28;20033;-85
2021/10/17 12:41:05;;;;;;;6.85;6.55;;;19.10;62.40;;;;;;4990250;28;20041;-84
2021/10/17 12:43:37;;;;;;;7.28;6.88;;;19.10;62.30;;;;;;4984924;28;20038;-84
2021/10/17 12:46:16;;;;;;;7.32;6.93;;;19.10;62.40;;;;;;4998501;28;20399;-84
2021/10/17 12:48:43;;;;;;;7.50;7.10;;;19.10;62.40;;;;;;5005435;28;20034;-85
2021/10/17 12:51:25;;;;;;;7.05;6.65;;;19.00;62.50;;;;;;4998284;28;20173;-83